Time;durP1;ratioP1;P1;durP2;ratioP2;P2;SDS_P1;SDS_P2;PMS_P1;PMS_P2;Temp;Humidity;BMP_temperature;BMP_pressure;BME280_temperature;BME280_humidity;BME280_pressure;Samples;Min_cycle;Max_cycle;Signal;HPM_P1;HPM_P2
2022/11/29 00:02:00;;;;;;;27.50;12.87;;;8.30;1.00;;;;;;5085361;28;20417;-80
2022/11/29 00:04:30;;;;;;;22.73;11.87;;;8.30;1.00;;;;;;5071724;28;20481;-88
2022/11/29 00:07:00;;;;;;;22.83;12.77;;;8.40;1.00;;;;;;5072735;28;20973;-88
2022/11/29 00:12:47;;;;;;;22.67;11.97;;;8.30;1.00;;;;;;5083590;28;21098;-88
2022/11/29 00:15:33;;;;;;;28.90;13.20;;;8.30;1.00;;;;;;5086219;28;20428;-88
2022/11/29 00:18:18;;;;;;;19.97;11.63;;;8.30;1.00;;;;;;5093603;28;20178;-88
2022/11/29 00:20:48;;;;;;;26.07;13.60;;;8.30;1.00;;;;;;5095654;28;20416;-80
2022/11/29 00:24:05;;;;;;;21.77;11.90;;;8.30;1.00;;;;;;5093714;28;20993;-80
2022/11/29 00:26:48;;;;;;;23.10;13.43;;;8.30;1.00;;;;;;5083125;28;20529;-80
2022/11/29 00:29:14;;;;;;;24.23;11.87;;;8.30;1.00;;;;;;5077909;28;20852;-79
2022/11/29 00:31:40;;;;;;;25.57;13.50;;;8.30;1.00;;;;;;5081776;28;20441;-79
2022/11/29 00:34:18;;;;;;;21.97;11.83;;;8.30;1.00;;;;;;5077603;28;20393;-80
2022/11/29 00:36:54;;;;;;;22.43;13.10;;;8.30;1.00;;;;;;5075992;28;20420;-80
2022/11/29 00:39:41;;;;;;;23.93;12.90;;;8.40;1.00;;;;;;5081593;28;20773;-79
2022/11/29 00:42:12;;;;;;;23.30;12.80;;;8.30;1.00;;;;;;5098472;28;20969;-79
2022/11/29 00:45:17;;;;;;;35.13;13.27;;;8.30;1.00;;;;;;5084433;28;20873;-80
2022/11/29 00:48:05;;;;;;;23.23;12.80;;;8.30;1.00;;;;;;5085182;28;20416;-79
2022/11/29 00:51:06;;;;;;;25.50;13.10;;;8.30;1.00;;;;;;5081554;28;20451;-88
2022/11/29 01:00:24;;;;;;;23.10;12.50;;;8.30;1.00;;;;;;5089889;28;20400;-88
2022/11/29 01:02:54;;;;;;;32.97;13.03;;;8.30;1.00;;;;;;5075044;28;20477;-88
2022/11/29 01:12:03;;;;;;;23.47;12.60;;;8.30;1.00;;;;;;5096107;28;20441;-88
2022/11/29 01:24:53;;;;;;;24.90;12.17;;;8.30;1.00;;;;;;5089275;28;20571;-88
2022/11/29 01:27:53;;;;;;;27.80;13.17;;;8.30;1.00;;;;;;5089066;28;20425;-88
2022/11/29 01:33:42;;;;;;;26.90;13.80;;;8.30;1.00;;;;;;5091884;28;20474;-88
2022/11/29 01:39:42;;;;;;;24.60;13.10;;;8.30;1.00;;;;;;5083366;28;20395;-88
2022/11/29 01:45:37;;;;;;;23.60;12.17;;;8.40;1.00;;;;;;5078552;28;20483;-88
2022/11/29 01:51:26;;;;;;;24.00;12.73;;;8.40;1.00;;;;;;5074851;28;20458;-79
2022/11/29 01:53:55;;;;;;;21.70;12.40;;;8.40;1.00;;;;;;5073373;28;20504;-79
2022/11/29 01:56:24;;;;;;;20.97;11.90;;;8.40;1.00;;;;;;5074643;28;20828;-81
2022/11/29 01:58:54;;;;;;;30.90;13.67;;;8.40;1.00;;;;;;5080370;28;20430;-79
2022/11/29 02:01:47;;;;;;;30.40;13.67;;;8.40;1.00;;;;;;5079847;28;20421;-80
2022/11/29 02:04:24;;;;;;;39.17;13.10;;;8.40;1.00;;;;;;5091294;28;20858;-80
2022/11/29 02:10:12;;;;;;;20.60;11.73;;;8.50;1.00;;;;;;5084595;28;20416;-88
2022/11/29 02:13:23;;;;;;;22.60;11.93;;;8.40;1.00;;;;;;5085378;28;20822;-88
2022/11/29 02:22:58;;;;;;;26.43;12.03;;;8.40;1.00;;;;;;5074986;28;20528;-79
2022/11/29 02:25:59;;;;;;;21.00;11.90;;;8.30;1.00;;;;;;5072723;28;20457;-79
2022/11/29 02:28:57;;;;;;;25.13;12.03;;;8.30;1.00;;;;;;5078634;28;20421;-80
2022/11/29 02:35:18;;;;;;;24.30;12.20;;;8.40;1.00;;;;;;5081656;28;20391;-80
2022/11/29 02:38:05;;;;;;;19.40;9.83;;;8.40;1.00;;;;;;5080582;28;20424;-80
2022/11/29 02:40:42;;;;;;;26.30;12.77;;;8.30;1.00;;;;;;5091585;28;20412;-79
2022/11/29 02:43:36;;;;;;;28.40;11.90;;;8.30;1.00;;;;;;5083173;28;20412;-81
2022/11/29 02:46:34;;;;;;;26.57;11.40;;;8.30;1.00;;;;;;5073747;28;20804;-80
2022/11/29 02:49:18;;;;;;;26.90;12.50;;;8.30;1.00;;;;;;5072508;28;20413;-80
2022/11/29 02:52:01;;;;;;;21.23;11.83;;;8.30;1.00;;;;;;5084532;28;20428;-80
2022/11/29 02:54:36;;;;;;;24.57;11.77;;;8.30;1.00;;;;;;5084476;28;20504;-80
2022/11/29 02:57:32;;;;;;;21.93;12.10;;;8.30;1.00;;;;;;5085550;28;20435;-81
2022/11/29 03:00:03;;;;;;;25.50;11.83;;;8.30;1.00;;;;;;5091943;28;20389;-79
2022/11/29 03:02:53;;;;;;;20.03;11.27;;;8.30;1.00;;;;;;5073465;28;20445;-80
2022/11/29 03:05:39;;;;;;;30.07;12.10;;;8.30;1.00;;;;;;5077751;28;20454;-80
2022/11/29 03:08:41;;;;;;;27.13;12.33;;;8.30;1.00;;;;;;5087562;28;20519;-88
2022/11/29 03:14:53;;;;;;;20.73;11.27;;;8.30;1.00;;;;;;5092824;28;20399;-87
2022/11/29 03:17:45;;;;;;;18.80;10.70;;;8.30;1.00;;;;;;5085587;28;20424;-88
2022/11/29 03:20:48;;;;;;;19.67;11.30;;;8.30;1.00;;;;;;5082051;28;20510;-87
2022/11/29 03:23:53;;;;;;;21.30;11.70;;;8.20;1.00;;;;;;5088368;28;20428;-79
2022/11/29 03:26:39;;;;;;;33.00;11.53;;;8.20;1.00;;;;;;5078826;28;20462;-80
2022/11/29 03:29:10;;;;;;;21.30;11.57;;;8.20;1.00;;;;;;5093077;28;20448;-80
2022/11/29 03:32:25;;;;;;;22.57;11.50;;;8.20;1.00;;;;;;5083899;28;20460;-79
2022/11/29 03:35:35;;;;;;;23.87;11.93;;;8.20;1.00;;;;;;5050961;28;20517;-79
2022/11/29 03:38:20;;;;;;;24.97;12.00;;;8.20;1.00;;;;;;5034467;28;20457;-79
2022/11/29 03:41:24;;;;;;;21.57;11.73;;;8.20;1.00;;;;;;5046771;28;20419;-79
2022/11/29 03:44:02;;;;;;;21.20;12.00;;;8.10;1.00;;;;;;5035387;28;20564;-79
2022/11/29 03:46:39;;;;;;;26.40;12.70;;;8.10;1.00;;;;;;5055098;28;20877;-80
2022/11/29 03:49:34;;;;;;;21.90;12.57;;;8.00;1.00;;;;;;5037895;28;20441;-79
2022/11/29 03:52:23;;;;;;;23.23;11.10;;;8.10;1.00;;;;;;4976138;28;20508;-79
2022/11/29 03:55:11;;;;;;;22.37;11.10;;;8.10;1.00;;;;;;4975894;28;20524;-80
2022/11/29 03:58:05;;;;;;;23.73;12.20;;;8.20;1.00;;;;;;4956375;29;20954;-79
2022/11/29 04:01:14;;;;;;;19.90;11.60;;;8.20;1.00;;;;;;4972558;28;20581;-80
2022/11/29 04:04:17;;;;;;;22.13;11.47;;;8.20;1.00;;;;;;4975579;28;20447;-79
2022/11/29 04:07:20;;;;;;;19.97;11.37;;;8.20;1.00;;;;;;4960273;28;20451;-88
2022/11/29 04:10:12;;;;;;;24.17;11.40;;;8.20;1.00;;;;;;5013983;28;20447;-87
2022/11/29 04:12:56;;;;;;;22.20;11.27;;;8.20;1.00;;;;;;5026235;28;20481;-87
2022/11/29 04:19:23;;;;;;;19.17;10.87;;;8.30;1.00;;;;;;5029846;28;20438;-87
2022/11/29 04:22:15;;;;;;;23.33;10.53;;;8.30;1.00;;;;;;5022587;28;20539;-80
2022/11/29 04:25:12;;;;;;;21.80;11.20;;;8.30;1.00;;;;;;5016466;28;20455;-79
2022/11/29 04:28:09;;;;;;;26.80;11.77;;;8.30;1.00;;;;;;5027620;28;20434;-80
2022/11/29 04:31:06;;;;;;;20.10;11.90;;;8.30;1.00;;;;;;5078461;28;20543;-80
2022/11/29 04:34:08;;;;;;;31.40;12.53;;;8.30;1.00;;;;;;5089942;28;20900;-80
2022/11/29 04:36:54;;;;;;;19.53;11.47;;;8.30;1.00;;;;;;5075675;28;20431;-79
2022/11/29 04:39:53;;;;;;;21.80;11.00;;;8.30;1.00;;;;;;5086659;28;20459;-79
2022/11/29 04:42:54;;;;;;;26.33;11.83;;;8.30;1.00;;;;;;5076165;28;20421;-80
2022/11/29 04:45:57;;;;;;;19.83;11.13;;;8.30;1.00;;;;;;5090858;28;20457;-79
2022/11/29 04:48:54;;;;;;;19.23;10.47;;;8.30;1.00;;;;;;5080280;28;20407;-79
2022/11/29 04:51:48;;;;;;;25.50;12.13;;;8.30;1.00;;;;;;5092825;28;21042;-79
2022/11/29 04:54:47;;;;;;;27.73;13.07;;;8.20;1.00;;;;;;5076190;28;20732;-80
2022/11/29 04:57:36;;;;;;;20.87;11.73;;;8.20;1.00;;;;;;5085725;28;20451;-79
2022/11/29 05:00:24;;;;;;;25.70;12.63;;;8.20;1.00;;;;;;5074424;28;20505;-80
2022/11/29 05:03:03;;;;;;;22.63;11.67;;;8.20;1.00;;;;;;5089208;28;20455;-80
2022/11/29 05:05:59;;;;;;;21.23;11.23;;;8.20;1.00;;;;;;5086970;28;20455;-80
2022/11/29 05:08:57;;;;;;;21.77;11.70;;;8.20;1.00;;;;;;5084752;28;20419;-79
2022/11/29 05:11:36;;;;;;;19.47;10.60;;;8.20;1.00;;;;;;5082659;28;20407;-79
2022/11/29 05:14:54;;;;;;;23.20;11.57;;;8.20;1.00;;;;;;5093822;28;20393;-80
2022/11/29 05:17:54;;;;;;;27.07;11.60;;;8.20;1.00;;;;;;5088897;28;20462;-79
2022/11/29 05:20:51;;;;;;;20.40;11.20;;;8.20;1.00;;;;;;5088605;28;20419;-81
2022/11/29 05:24:02;;;;;;;25.03;12.10;;;8.20;1.00;;;;;;5084754;28;20463;-82
2022/11/29 05:26:53;;;;;;;23.47;11.70;;;8.20;1.00;;;;;;5085121;28;20949;-81
2022/11/29 05:29:57;;;;;;;21.33;11.50;;;8.10;1.00;;;;;;5082341;28;20444;-81
2022/11/29 05:32:53;;;;;;;25.20;11.40;;;8.10;1.00;;;;;;5093420;28;20436;-80
2022/11/29 05:36:14;;;;;;;22.97;10.67;;;8.10;1.00;;;;;;5074629;28;20421;-81
2022/11/29 05:39:27;;;;;;;28.67;12.00;;;8.10;1.00;;;;;;5011926;28;20805;-81
2022/11/29 05:42:23;;;;;;;52.23;12.20;;;8.10;1.00;;;;;;5009981;28;20458;-80
2022/11/29 05:45:00;;;;;;;35.50;12.90;;;8.10;1.00;;;;;;5012941;28;20463;-80
2022/11/29 05:51:05;;;;;;;53.90;12.30;;;8.20;1.00;;;;;;5032478;28;20433;-81
2022/11/29 05:53:52;;;;;;;24.83;12.40;;;8.20;1.00;;;;;;5019365;28;20423;-79
2022/11/29 05:56:44;;;;;;;30.90;12.47;;;8.30;1.00;;;;;;5032791;28;20410;-79
2022/11/29 05:59:31;;;;;;;40.77;13.30;;;8.30;1.00;;;;;;4934889;29;20547;-79
2022/11/29 06:02:29;;;;;;;56.93;14.23;;;8.30;1.00;;;;;;4935069;29;20434;-79
2022/11/29 06:05:35;;;;;;;46.77;12.37;;;8.30;1.00;;;;;;4878059;29;20469;-79
2022/11/29 06:08:19;;;;;;;52.23;13.80;;;8.30;1.00;;;;;;4877713;29;20433;-79
2022/11/29 06:11:23;;;;;;;30.40;12.83;;;8.30;1.00;;;;;;4878812;29;20446;-79
2022/11/29 06:14:06;;;;;;;34.80;13.63;;;8.30;1.00;;;;;;4864904;29;20495;-79
2022/11/29 06:16:41;;;;;;;30.20;13.07;;;8.30;1.00;;;;;;4859615;29;20474;-79
2022/11/29 06:19:36;;;;;;;35.53;13.90;;;8.30;1.00;;;;;;4859862;29;20442;-79
2022/11/29 06:22:24;;;;;;;34.23;14.17;;;8.40;1.00;;;;;;4859802;29;20426;-79
2022/11/29 06:25:12;;;;;;;32.33;14.00;;;8.40;1.00;;;;;;4860396;29;20475;-79
2022/11/29 06:28:17;;;;;;;35.43;14.10;;;8.40;1.00;;;;;;4862897;29;20483;-78
2022/11/29 06:31:23;;;;;;;36.53;13.57;;;8.40;1.00;;;;;;4865144;29;20461;-78
2022/11/29 06:34:13;;;;;;;38.27;14.57;;;8.40;1.00;;;;;;4866550;29;20442;-79
2022/11/29 06:37:03;;;;;;;39.70;15.10;;;8.40;1.00;;;;;;4909778;29;20427;-78
2022/11/29 06:39:54;;;;;;;42.53;14.43;;;8.40;1.00;;;;;;4934978;29;20408;-79
2022/11/29 06:42:24;;;;;;;36.33;15.10;;;8.40;1.00;;;;;;4984454;28;20420;-79
2022/11/29 06:44:54;;;;;;;40.17;15.00;;;8.40;1.00;;;;;;4995237;28;20486;-79
2022/11/29 06:47:27;;;;;;;36.83;15.17;;;8.40;1.00;;;;;;5011472;28;20868;-78
2022/11/29 06:50:17;;;;;;;41.03;16.00;;;8.40;1.00;;;;;;5026253;28;20454;-79
2022/11/29 06:53:14;;;;;;;38.87;14.30;;;8.40;1.00;;;;;;5073478;28;20381;-78
2022/11/29 06:56:11;;;;;;;44.87;16.30;;;8.40;1.00;;;;;;5073561;28;20444;-78
2022/11/29 06:59:09;;;;;;;46.57;14.10;;;8.40;1.00;;;;;;5084595;28;20423;-78
2022/11/29 07:01:53;;;;;;;29.63;13.23;;;8.40;1.00;;;;;;5082658;28;20403;-78
2022/11/29 07:04:54;;;;;;;38.77;14.00;;;8.40;1.00;;;;;;5093650;28;20440;-78
2022/11/29 07:07:22;;;;;;;29.87;13.03;;;8.40;1.00;;;;;;5087248;28;20982;-79
2022/11/29 07:09:59;;;;;;;32.90;13.37;;;8.30;1.00;;;;;;5094177;28;20416;-79
2022/11/29 07:12:43;;;;;;;33.53;13.43;;;8.30;1.00;;;;;;5090238;28;20469;-78
2022/11/29 07:15:24;;;;;;;35.23;13.43;;;8.30;1.00;;;;;;5081702;28;20416;-78
2022/11/29 07:18:16;;;;;;;38.40;15.27;;;8.30;1.00;;;;;;5077164;28;20439;-78
2022/11/29 07:21:02;;;;;;;28.33;12.90;;;8.30;1.00;;;;;;5084787;28;20756;-78
2022/11/29 07:23:54;;;;;;;37.27;14.03;;;8.30;1.00;;;;;;5086454;28;20588;-74
2022/11/29 07:26:39;;;;;;;34.03;13.77;;;8.20;1.00;;;;;;5076992;28;20510;-69
2022/11/29 07:29:36;;;;;;;31.50;13.20;;;8.30;1.00;;;;;;5080837;28;20445;-69
2022/11/29 07:32:47;;;;;;;34.13;14.07;;;8.30;1.00;;;;;;5081452;28;20400;-86
2022/11/29 07:35:53;;;;;;;38.10;14.37;;;8.30;1.00;;;;;;5081054;28;20473;-72
2022/11/29 07:38:37;;;;;;;36.13;14.60;;;8.30;1.00;;;;;;5007651;28;20752;-72
2022/11/29 07:41:20;;;;;;;39.30;14.80;;;8.30;1.00;;;;;;5004196;28;20412;-72
2022/11/29 07:43:57;;;;;;;39.40;14.67;;;8.40;1.00;;;;;;5011405;28;20463;-72
2022/11/29 07:46:24;;;;;;;36.07;15.50;;;8.50;1.00;;;;;;5007766;28;20420;-72
2022/11/29 07:48:54;;;;;;;39.60;15.50;;;8.50;1.00;;;;;;5015296;28;20416;-72
2022/11/29 07:51:20;;;;;;;34.53;14.00;;;8.60;1.00;;;;;;5006606;28;20438;-72
2022/11/29 07:53:48;;;;;;;39.03;14.70;;;8.70;1.00;;;;;;5014907;28;20510;-72
2022/11/29 07:56:15;;;;;;;34.47;14.33;;;8.70;1.00;;;;;;5002767;28;20475;-72
2022/11/29 07:58:41;;;;;;;32.93;14.30;;;8.70;1.00;;;;;;5008292;28;20436;-72
2022/11/29 08:01:07;;;;;;;34.97;15.27;;;8.70;1.00;;;;;;5005474;28;20823;-72
2022/11/29 08:03:36;;;;;;;30.90;15.20;;;8.80;1.00;;;;;;4996913;28;20507;-72
2022/11/29 08:06:02;;;;;;;30.37;14.53;;;8.80;1.00;;;;;;5007217;28;20553;-72
2022/11/29 08:08:28;;;;;;;33.80;14.40;;;8.90;1.00;;;;;;5011172;28;20769;-68
2022/11/29 08:10:53;;;;;;;30.77;14.07;;;8.90;1.00;;;;;;5004694;28;20594;-69
2022/11/29 08:13:20;;;;;;;41.30;14.50;;;8.90;1.00;;;;;;5007936;28;20231;-68
2022/11/29 08:15:46;;;;;;;29.13;13.90;;;9.00;1.00;;;;;;5076590;28;20228;-68
2022/11/29 08:18:14;;;;;;;28.93;14.80;;;9.00;1.00;;;;;;5075566;28;20454;-71
2022/11/29 08:20:40;;;;;;;34.60;15.10;;;9.00;1.00;;;;;;5087040;28;20420;-69
2022/11/29 08:23:09;;;;;;;34.57;14.27;;;9.00;1.00;;;;;;5076277;28;20433;-68
2022/11/29 08:25:35;;;;;;;38.27;15.13;;;9.10;1.00;;;;;;5086552;28;20471;-70
2022/11/29 08:28:02;;;;;;;32.60;14.40;;;9.10;1.00;;;;;;5074036;28;20924;-70
2022/11/29 08:30:28;;;;;;;43.83;15.10;;;9.10;1.00;;;;;;5075132;28;20248;-75
2022/11/29 08:32:54;;;;;;;34.80;14.80;;;9.10;1.00;;;;;;5083955;28;20436;-75
2022/11/29 08:35:22;;;;;;;38.53;15.30;;;9.00;1.00;;;;;;5095865;28;20451;-75
2022/11/29 08:37:54;;;;;;;35.57;14.60;;;9.10;1.00;;;;;;5084124;28;20220;-75
2022/11/29 08:40:20;;;;;;;39.50;14.50;;;9.20;1.00;;;;;;5080009;28;20467;-74
2022/11/29 08:42:46;;;;;;;35.97;14.70;;;9.20;1.00;;;;;;5086593;28;20432;-74
2022/11/29 08:45:12;;;;;;;29.83;13.77;;;9.20;1.00;;;;;;5079955;28;20206;-74
2022/11/29 08:47:40;;;;;;;31.83;14.80;;;9.20;1.00;;;;;;5081262;28;20660;-74
2022/11/29 08:50:14;;;;;;;34.63;15.00;;;9.30;1.00;;;;;;5089624;28;20190;-74
2022/11/29 08:55:30;;;;;;;34.37;14.67;;;9.40;1.00;;;;;;5080094;28;20436;-70
2022/11/29 08:58:13;;;;;;;36.30;15.00;;;9.40;1.00;;;;;;5083339;28;20903;-70
2022/11/29 09:01:24;;;;;;;35.70;14.80;;;9.50;1.00;;;;;;5076014;28;20429;-88
2022/11/29 09:07:25;;;;;;;46.07;14.70;;;9.40;1.00;;;;;;5082203;28;20443;-88
2022/11/29 09:10:30;;;;;;;36.67;14.40;;;9.40;1.00;;;;;;5077882;28;20427;-88
2022/11/29 09:16:21;;;;;;;32.00;14.53;;;9.40;1.00;;;;;;5082657;28;20523;-89
2022/11/29 09:22:30;;;;;;;33.10;15.17;;;9.50;1.00;;;;;;5091445;28;20483;-89
2022/11/29 09:28:40;;;;;;;33.10;14.60;;;9.50;1.00;;;;;;5086823;28;20411;-90
2022/11/29 09:31:14;;;;;;;32.33;14.43;;;9.60;1.00;;;;;;5074601;28;20468;-90
2022/11/29 09:33:40;;;;;;;27.80;14.37;;;9.60;1.00;;;;;;5086577;28;20423;-90
2022/11/29 09:36:18;;;;;;;39.90;13.70;;;9.60;1.00;;;;;;5087180;28;20408;-90
2022/11/29 09:39:12;;;;;;;31.60;14.67;;;9.60;1.00;;;;;;5096155;28;20949;-89
2022/11/29 09:42:12;;;;;;;30.20;13.93;;;9.70;1.00;;;;;;5081410;28;20425;-88
2022/11/29 09:48:35;;;;;;;22.83;13.13;;;9.70;1.00;;;;;;5090230;28;21061;-88
2022/11/29 09:52:04;;;;;;;24.97;13.57;;;9.70;1.00;;;;;;5075182;28;20416;-88
2022/11/29 10:01:20;;;;;;;23.47;13.00;;;9.90;1.00;;;;;;5013044;28;20969;-89
2022/11/29 10:04:01;;;;;;;22.37;12.87;;;9.90;1.00;;;;;;5013963;28;20408;-89
2022/11/29 10:07:07;;;;;;;30.40;14.20;;;9.90;1.00;;;;;;4981958;28;20503;-89
2022/11/29 10:09:43;;;;;;;21.90;12.53;;;9.90;1.00;;;;;;5009803;28;20436;-89
2022/11/29 10:12:42;;;;;;;24.40;13.30;;;10.00;1.00;;;;;;4996274;28;20507;-87
2022/11/29 10:15:20;;;;;;;25.77;11.77;;;10.00;1.00;;;;;;4988756;28;20832;-88
2022/11/29 10:18:21;;;;;;;23.70;12.90;;;10.00;1.00;;;;;;5010172;28;20976;-88
2022/11/29 10:21:17;;;;;;;27.23;13.53;;;10.10;1.00;;;;;;4935827;29;20470;-87
2022/11/29 10:24:16;;;;;;;20.00;12.23;;;10.00;1.00;;;;;;4935843;29;20463;-88
2022/11/29 10:30:05;;;;;;;26.10;12.47;;;9.90;1.00;;;;;;5001615;28;20464;-89
2022/11/29 10:32:32;;;;;;;22.57;12.43;;;9.90;1.00;;;;;;4992701;28;20479;-89
2022/11/29 10:38:19;;;;;;;29.70;15.33;;;10.00;1.00;;;;;;5009505;28;20401;-89
2022/11/29 10:44:06;;;;;;;42.10;16.10;;;10.00;1.00;;;;;;5012833;28;20270;-88
2022/11/29 10:53:22;;;;;;;41.83;18.80;;;10.20;1.00;;;;;;4994561;28;20403;-82
2022/11/29 10:56:23;;;;;;;54.50;20.40;;;10.20;1.00;;;;;;5004408;28;20907;-81
2022/11/29 11:05:32;;;;;;;42.97;20.03;;;10.30;1.00;;;;;;5088932;28;20610;-86
2022/11/29 11:11:29;;;;;;;51.40;21.73;;;10.40;1.00;;;;;;5073912;28;20182;-86
2022/11/29 11:17:29;;;;;;;53.13;21.87;;;10.40;1.00;;;;;;5094229;28;20963;-86
2022/11/29 11:33:35;;;;;;;53.63;21.83;;;10.40;1.00;;;;;;5074170;28;20394;-86
2022/11/29 11:46:07;;;;;;;47.17;22.43;;;10.60;1.00;;;;;;5086547;28;20451;-86
2022/11/29 11:51:56;;;;;;;53.97;23.33;;;10.60;1.00;;;;;;5080608;28;20186;-86
2022/11/29 11:57:44;;;;;;;45.87;20.80;;;10.60;1.00;;;;;;5085552;28;20455;-82
2022/11/29 12:00:51;;;;;;;57.13;23.37;;;10.60;1.00;;;;;;5078941;28;20449;-81
2022/11/29 12:03:48;;;;;;;54.37;23.57;;;10.70;1.00;;;;;;5081205;28;20699;-82
2022/11/29 12:06:54;;;;;;;65.27;23.27;;;10.70;1.00;;;;;;5074854;28;20467;-82
2022/11/29 12:09:24;;;;;;;52.00;22.07;;;10.70;1.00;;;;;;5094156;28;20813;-81
2022/11/29 12:12:10;;;;;;;50.40;23.07;;;10.70;1.00;;;;;;5086942;28;20508;-82
2022/11/29 12:15:09;;;;;;;53.87;22.53;;;10.80;1.00;;;;;;5080117;28;20432;-82
2022/11/29 12:18:06;;;;;;;50.80;21.70;;;10.80;1.00;;;;;;5029891;28;20423;-82
2022/11/29 12:21:26;;;;;;;47.30;21.77;;;10.80;1.00;;;;;;5032433;28;20459;-82
2022/11/29 12:27:24;;;;;;;52.87;22.80;;;10.80;1.00;;;;;;4975288;28;20472;-82
2022/11/29 12:30:24;;;;;;;56.13;22.33;;;10.80;1.00;;;;;;4975698;28;20449;-81
2022/11/29 12:33:25;;;;;;;53.30;22.40;;;10.80;1.00;;;;;;4958218;28;20843;-81
2022/11/29 12:36:14;;;;;;;50.07;23.03;;;10.80;1.00;;;;;;4974976;28;20481;-82
2022/11/29 12:39:07;;;;;;;43.90;22.23;;;10.80;1.00;;;;;;4975380;28;20508;-83
2022/11/29 12:41:55;;;;;;;53.50;23.50;;;10.80;1.00;;;;;;4975277;28;20406;-81
2022/11/29 12:44:45;;;;;;;52.83;23.00;;;10.80;1.00;;;;;;4975470;28;20410;-83
2022/11/29 12:47:29;;;;;;;55.03;22.50;;;10.80;1.00;;;;;;4975048;28;20447;-82
2022/11/29 12:50:30;;;;;;;51.10;23.90;;;10.80;1.00;;;;;;4946697;28;20419;-82
2022/11/29 12:53:41;;;;;;;54.30;23.67;;;10.80;1.00;;;;;;4971655;28;20422;-82
2022/11/29 12:56:25;;;;;;;48.87;22.50;;;10.80;1.00;;;;;;5000851;28;20452;-81
2022/11/29 13:05:39;;;;;;;50.13;22.83;;;10.80;1.00;;;;;;5026287;28;20486;-88
2022/11/29 13:08:26;;;;;;;61.60;23.73;;;10.80;1.00;;;;;;5021098;28;20415;-88
2022/11/29 13:11:08;;;;;;;59.97;23.80;;;10.80;1.00;;;;;;5034234;28;20395;-87
2022/11/29 13:20:32;;;;;;;50.17;22.33;;;10.80;1.00;;;;;;5034375;28;20929;-88
2022/11/29 13:29:40;;;;;;;41.47;20.93;;;10.90;1.00;;;;;;5022764;28;20446;-82
2022/11/29 13:32:40;;;;;;;46.30;22.10;;;11.00;1.00;;;;;;5030654;28;20425;-82
2022/11/29 13:35:17;;;;;;;53.40;22.73;;;11.00;1.00;;;;;;5013301;28;20200;-82
2022/11/29 13:38:17;;;;;;;43.33;21.27;;;11.10;1.00;;;;;;4993161;28;20433;-82
2022/11/29 13:40:55;;;;;;;41.83;20.33;;;11.10;1.00;;;;;;4988768;28;20437;-81
2022/11/29 13:47:09;;;;;;;43.63;21.03;;;11.20;1.00;;;;;;5002888;28;20432;-87
2022/11/29 13:50:24;;;;;;;39.70;19.83;;;11.20;1.00;;;;;;4994012;28;20564;-86
2022/11/29 13:57:06;;;;;;;45.10;20.40;;;11.10;1.00;;;;;;5001882;28;20969;-87
2022/11/29 14:00:00;;;;;;;40.63;19.90;;;11.20;1.00;;;;;;5002938;28;20423;-81
2022/11/29 14:02:29;;;;;;;42.40;20.67;;;11.20;1.00;;;;;;4993103;28;20441;-81
2022/11/29 14:05:01;;;;;;;39.20;19.57;;;11.10;1.00;;;;;;5006318;28;20463;-82
2022/11/29 14:08:15;;;;;;;48.47;20.80;;;11.10;1.00;;;;;;4996287;28;20427;-81
2022/11/29 14:11:21;;;;;;;37.50;18.50;;;11.10;1.00;;;;;;4995098;28;20420;-82
2022/11/29 14:27:34;;;;;;;38.87;19.57;;;10.90;1.00;;;;;;5084291;28;20427;-87
2022/11/29 14:30:29;;;;;;;42.03;19.83;;;10.90;1.00;;;;;;5094510;28;20448;-82
2022/11/29 14:33:16;;;;;;;37.43;18.50;;;10.90;1.00;;;;;;5076278;28;20430;-81
2022/11/29 14:36:25;;;;;;;44.63;20.17;;;10.80;1.00;;;;;;5072698;28;20430;-81
2022/11/29 14:38:56;;;;;;;36.37;18.77;;;10.80;1.00;;;;;;5084444;28;20412;-82
2022/11/29 14:41:46;;;;;;;40.10;19.77;;;10.80;1.00;;;;;;5088602;28;20885;-81
2022/11/29 14:44:23;;;;;;;40.20;19.83;;;10.80;1.00;;;;;;5081013;28;20757;-85
2022/11/29 14:53:35;;;;;;;42.20;18.77;;;10.70;1.00;;;;;;5073943;28;20929;-85
2022/11/29 14:59:51;;;;;;;42.30;19.30;;;10.60;1.00;;;;;;5076725;28;20463;-85
2022/11/29 15:06:22;;;;;;;43.30;18.77;;;10.40;1.00;;;;;;5073962;28;20495;-83
2022/11/29 15:09:02;;;;;;;38.37;17.37;;;10.40;1.00;;;;;;5077152;28;20423;-70
2022/11/29 15:11:49;;;;;;;42.13;19.07;;;10.30;1.00;;;;;;5079479;28;20919;-71
2022/11/29 15:14:22;;;;;;;41.73;20.00;;;10.30;1.00;;;;;;5088151;28;20495;-70
2022/11/29 15:17:13;;;;;;;39.33;18.63;;;10.20;1.00;;;;;;5081731;28;20489;-71
2022/11/29 15:20:22;;;;;;;45.87;20.10;;;10.20;1.00;;;;;;5083936;28;20762;-71
2022/11/29 15:22:58;;;;;;;46.70;19.73;;;10.10;1.00;;;;;;5029974;28;20910;-71
2022/11/29 15:25:27;;;;;;;42.17;18.97;;;10.10;1.00;;;;;;5028323;28;20462;-71
2022/11/29 15:27:55;;;;;;;45.90;19.67;;;10.00;1.00;;;;;;5029201;28;20568;-70
2022/11/29 15:30:37;;;;;;;42.30;18.67;;;10.00;1.00;;;;;;5029090;28;20493;-69
2022/11/29 15:33:16;;;;;;;44.87;18.83;;;9.90;1.00;;;;;;5029150;28;20435;-69
2022/11/29 15:35:54;;;;;;;42.53;20.27;;;9.90;1.00;;;;;;5025973;28;20572;-69
2022/11/29 15:38:21;;;;;;;42.70;18.67;;;9.80;1.00;;;;;;5010148;28;21156;-71
2022/11/29 15:40:52;;;;;;;47.60;19.63;;;9.70;1.00;;;;;;5030176;28;20515;-71
2022/11/29 15:43:29;;;;;;;48.90;19.80;;;9.60;1.00;;;;;;5028094;28;20443;-75
2022/11/29 15:45:57;;;;;;;43.03;19.80;;;9.50;1.00;;;;;;5031232;28;20545;-74
2022/11/29 15:48:25;;;;;;;47.97;20.00;;;9.50;1.00;;;;;;5030867;28;20492;-74
2022/11/29 15:50:53;;;;;;;42.30;18.87;;;9.40;1.00;;;;;;5031512;28;20991;-73
2022/11/29 15:53:36;;;;;;;41.07;19.40;;;9.40;1.00;;;;;;5033495;28;20797;-74
2022/11/29 15:56:10;;;;;;;53.47;19.23;;;9.30;1.00;;;;;;5032754;28;20528;-73
2022/11/29 15:58:36;;;;;;;46.33;20.47;;;9.10;1.00;;;;;;5037293;28;20442;-74
2022/11/29 16:01:02;;;;;;;45.07;20.50;;;9.00;1.00;;;;;;5087621;28;20435;-73
2022/11/29 16:03:34;;;;;;;60.90;25.77;;;9.00;1.00;;;;;;5081170;28;20433;-73
2022/11/29 16:06:08;;;;;;;51.13;20.93;;;9.10;1.00;;;;;;5082989;28;20464;-73
2022/11/29 16:08:40;;;;;;;44.90;20.20;;;9.10;1.00;;;;;;5088384;28;20419;-73
2022/11/29 16:11:14;;;;;;;54.40;20.43;;;9.10;1.00;;;;;;5081335;28;20435;-71
2022/11/29 16:14:11;;;;;;;40.57;18.87;;;9.10;1.00;;;;;;5082415;28;20446;-71
2022/11/29 16:16:39;;;;;;;49.43;19.07;;;9.00;1.00;;;;;;5084184;28;20452;-71
2022/11/29 16:19:15;;;;;;;46.00;20.30;;;9.00;1.00;;;;;;5083036;28;20417;-70
2022/11/29 16:21:42;;;;;;;47.43;19.90;;;9.00;1.00;;;;;;5076475;28;20477;-71
2022/11/29 16:24:20;;;;;;;48.93;18.63;;;9.10;1.00;;;;;;5079184;28;20421;-71
2022/11/29 16:26:50;;;;;;;50.23;20.47;;;9.00;1.00;;;;;;5084489;28;20436;-70
2022/11/29 16:29:23;;;;;;;41.70;18.17;;;9.00;1.00;;;;;;5087086;28;20441;-71
2022/11/29 16:32:24;;;;;;;46.73;19.37;;;9.00;1.00;;;;;;5086228;28;20413;-71
2022/11/29 16:35:16;;;;;;;42.60;18.57;;;9.00;1.00;;;;;;5022878;28;20438;-71
2022/11/29 16:37:50;;;;;;;40.33;18.90;;;9.10;1.00;;;;;;5021567;28;20506;-71
2022/11/29 16:40:28;;;;;;;39.40;18.07;;;9.00;1.00;;;;;;5033354;28;20893;-71
2022/11/29 16:43:22;;;;;;;43.47;19.23;;;9.00;1.00;;;;;;5034157;28;20451;-71
2022/11/29 16:46:07;;;;;;;49.83;19.50;;;9.00;1.00;;;;;;5014362;28;20852;-72
2022/11/29 16:48:37;;;;;;;41.13;18.87;;;9.00;1.00;;;;;;5031267;28;20434;-73
2022/11/29 16:51:22;;;;;;;51.47;18.53;;;9.00;1.00;;;;;;5032669;28;20795;-75
2022/11/29 16:53:51;;;;;;;37.80;17.60;;;9.00;1.00;;;;;;5032667;28;20492;-75
2022/11/29 16:56:23;;;;;;;45.53;17.23;;;9.00;1.00;;;;;;5020651;28;20423;-75
2022/11/29 16:58:55;;;;;;;38.70;17.50;;;9.10;1.00;;;;;;5028377;28;20478;-75
2022/11/29 17:01:26;;;;;;;40.10;16.70;;;9.10;1.00;;;;;;5033582;28;20423;-75
2022/11/29 17:03:52;;;;;;;40.93;18.27;;;9.10;1.00;;;;;;5024746;28;20426;-75
2022/11/29 17:06:23;;;;;;;41.80;17.90;;;9.10;1.00;;;;;;5034953;28;20467;-75
2022/11/29 17:08:57;;;;;;;41.60;18.60;;;9.20;1.00;;;;;;5027874;28;20431;-75
2022/11/29 17:11:26;;;;;;;38.83;17.17;;;9.10;1.00;;;;;;5075089;28;20770;-74
2022/11/29 17:13:52;;;;;;;54.07;19.50;;;9.10;1.00;;;;;;5091885;28;20440;-72
2022/11/29 17:16:20;;;;;;;36.00;17.03;;;9.10;1.00;;;;;;5092797;28;20486;-70
2022/11/29 17:18:46;;;;;;;39.93;18.10;;;9.10;1.00;;;;;;5091918;28;20876;-73
2022/11/29 17:21:20;;;;;;;42.67;19.40;;;9.10;1.00;;;;;;5094891;28;20424;-73
2022/11/29 17:23:46;;;;;;;32.30;16.93;;;9.00;1.00;;;;;;5082305;28;20438;-73
2022/11/29 17:26:12;;;;;;;41.80;17.50;;;9.00;1.00;;;;;;5085941;28;20479;-73
2022/11/29 17:28:45;;;;;;;44.67;18.40;;;9.10;1.00;;;;;;5078548;28;20412;-73
2022/11/29 17:31:16;;;;;;;43.73;18.60;;;9.10;1.00;;;;;;5077494;28;20468;-74
2022/11/29 17:33:42;;;;;;;38.37;16.70;;;9.20;1.00;;;;;;5083708;28;20423;-75
2022/11/29 17:36:14;;;;;;;43.53;16.60;;;9.20;1.00;;;;;;5084296;28;20441;-73
2022/11/29 17:38:41;;;;;;;37.13;17.67;;;9.20;1.00;;;;;;5074615;28;21987;-74
2022/11/29 17:41:14;;;;;;;47.97;16.97;;;9.20;1.00;;;;;;5087704;28;20945;-74